Time;durP1;ratioP1;P1;durP2;ratioP2;P2;SDS_P1;SDS_P2;PMS_P1;PMS_P2;Temp;Humidity;BMP_temperature;BMP_pressure;BME280_temperature;BME280_humidity;BME280_pressure;Samples;Min_cycle;Max_cycle;Signal;HPM_P1;HPM_P2
2022/02/27 00:00:51;;;;;;;9.05;7.88;;;;;;;;;;10292963;28;20080;-56
2022/02/27 00:05:51;;;;;;;10.20;7.90;;;;;;;;;;10291359;28;20056;-54
2022/02/27 00:10:50;;;;;;;10.80;7.88;;;;;;;;;;10292057;28;20072;-57
2022/02/27 00:15:49;;;;;;;10.98;8.05;;;;;;;;;;10292629;28;20080;-51
2022/02/27 00:20:47;;;;;;;8.55;7.45;;;;;;;;;;10280438;28;20477;-54
2022/02/27 00:25:46;;;;;;;9.27;6.85;;;;;;;;;;10290272;28;20097;-56
2022/02/27 00:30:47;;;;;;;6.72;5.88;;;;;;;;;;10282448;28;20076;-56
2022/02/27 00:35:47;;;;;;;9.18;6.03;;;;;;;;;;10292034;28;20497;-57
2022/02/27 00:40:45;;;;;;;12.43;7.78;;;;;;;;;;10291432;28;20072;-56
2022/02/27 00:45:43;;;;;;;12.85;9.60;;;;;;;;;;10291381;28;20509;-54
2022/02/27 00:50:43;;;;;;;9.52;6.72;;;;;;;;;;10293152;28;20102;-54
2022/02/27 00:55:46;;;;;;;10.18;7.63;;;;;;;;;;10274795;28;20076;-56
2022/02/27 01:00:44;;;;;;;9.93;7.43;;;;;;;;;;10293315;28;20071;-57
2022/02/27 01:05:44;;;;;;;9.88;7.53;;;;;;;;;;10313245;28;20481;-57
2022/02/27 01:10:42;;;;;;;9.13;6.32;;;;;;;;;;10290355;28;20056;-54
2022/02/27 01:15:41;;;;;;;10.25;6.93;;;;;;;;;;10285051;28;20076;-57
2022/02/27 01:20:39;;;;;;;10.98;6.53;;;;;;;;;;10291185;28;20571;-56
2022/02/27 01:25:42;;;;;;;10.30;7.72;;;;;;;;;;10291343;28;20135;-57
2022/02/27 01:30:40;;;;;;;9.00;6.97;;;;;;;;;;10291424;28;20052;-57
2022/02/27 01:35:39;;;;;;;9.45;6.32;;;;;;;;;;10288604;28;20066;-53
2022/02/27 01:40:37;;;;;;;14.27;7.35;;;;;;;;;;10290268;28;20227;-56
2022/02/27 01:45:37;;;;;;;14.55;8.65;;;;;;;;;;10289013;28;20474;-53
2022/02/27 01:50:36;;;;;;;17.80;11.60;;;;;;;;;;10288548;28;20087;-56
2022/02/27 01:55:34;;;;;;;8.60;6.07;;;;;;;;;;10279018;28;20067;-55
2022/02/27 02:00:33;;;;;;;15.27;8.73;;;;;;;;;;10287570;28;20521;-53
2022/02/27 02:05:34;;;;;;;16.10;10.68;;;;;;;;;;10267243;28;20338;-56
2022/02/27 02:10:32;;;;;;;13.40;9.68;;;;;;;;;;10283053;28;20080;-55
2022/02/27 02:15:34;;;;;;;12.30;8.32;;;;;;;;;;10305444;28;20052;-55
2022/02/27 02:20:34;;;;;;;10.70;7.90;;;;;;;;;;10274657;28;20068;-55
2022/02/27 02:25:33;;;;;;;35.90;20.70;;;;;;;;;;10286226;28;20485;-52
2022/02/27 02:30:31;;;;;;;13.48;9.98;;;;;;;;;;10286693;28;20080;-55
2022/02/27 02:35:30;;;;;;;8.07;6.43;;;;;;;;;;10270296;28;20081;-55
2022/02/27 02:40:29;;;;;;;7.93;6.20;;;;;;;;;;10284153;28;20484;-55
2022/02/27 02:45:31;;;;;;;9.45;5.90;;;;;;;;;;10288378;28;20080;-55
2022/02/27 02:50:29;;;;;;;11.15;7.10;;;;;;;;;;10268768;28;20081;-54
2022/02/27 02:55:31;;;;;;;10.02;6.75;;;;;;;;;;10268877;28;20101;-55
2022/02/27 03:00:30;;;;;;;9.60;6.72;;;;;;;;;;10279105;28;20068;-57
2022/02/27 03:05:31;;;;;;;7.53;6.10;;;;;;;;;;10291774;28;20088;-54
2022/02/27 03:10:29;;;;;;;8.57;6.20;;;;;;;;;;10318397;28;20632;-55
2022/02/27 03:15:29;;;;;;;7.30;6.05;;;;;;;;;;10318416;28;20399;-54
2022/02/27 03:20:27;;;;;;;8.95;6.57;;;;;;;;;;10313012;28;20080;-53
2022/02/27 03:25:26;;;;;;;7.63;6.45;;;;;;;;;;10290730;28;20107;-56
2022/02/27 03:30:26;;;;;;;8.30;6.18;;;;;;;;;;10317466;28;20072;-55
2022/02/27 03:35:26;;;;;;;10.30;6.63;;;;;;;;;;10318472;28;20536;-54
2022/02/27 03:40:24;;;;;;;10.23;6.25;;;;;;;;;;10311946;28;20064;-55
2022/02/27 03:45:22;;;;;;;9.65;6.40;;;;;;;;;;10311531;28;20488;-53
2022/02/27 03:50:21;;;;;;;8.40;7.20;;;;;;;;;;10291472;28;20080;-55
2022/02/27 03:55:21;;;;;;;11.40;7.97;;;;;;;;;;10293081;28;20130;-55
2022/02/27 04:00:19;;;;;;;10.52;6.70;;;;;;;;;;10293031;28;20075;-56
2022/02/27 04:05:18;;;;;;;7.95;6.50;;;;;;;;;;10278925;28;20087;-56
2022/02/27 04:10:17;;;;;;;10.02;7.18;;;;;;;;;;10291101;28;20084;-54
2022/02/27 04:15:16;;;;;;;8.70;6.40;;;;;;;;;;10314585;28;20067;-54
2022/02/27 04:20:14;;;;;;;7.45;6.05;;;;;;;;;;10284827;28;20061;-56
2022/02/27 04:25:13;;;;;;;8.10;5.75;;;;;;;;;;10292047;28;20083;-55
2022/02/27 04:30:11;;;;;;;9.43;5.95;;;;;;;;;;10292276;28;20076;-55
2022/02/27 04:35:11;;;;;;;5.95;5.22;;;;;;;;;;10290766;28;20068;-55
2022/02/27 04:40:10;;;;;;;6.95;5.90;;;;;;;;;;10280686;28;20087;-55
2022/02/27 04:45:09;;;;;;;9.70;6.43;;;;;;;;;;10285307;28;20091;-55
2022/02/27 04:50:08;;;;;;;8.10;5.90;;;;;;;;;;10284190;28;20094;-55
2022/02/27 04:55:08;;;;;;;11.45;7.65;;;;;;;;;;10289995;28;20072;-55
2022/02/27 05:00:07;;;;;;;9.70;7.05;;;;;;;;;;10290355;28;20520;-56
2022/02/27 05:05:07;;;;;;;14.45;7.65;;;;;;;;;;10288331;28;20075;-55
2022/02/27 05:10:10;;;;;;;9.02;7.45;;;;;;;;;;10277816;28;20513;-55
2022/02/27 05:15:10;;;;;;;7.97;6.32;;;;;;;;;;10289381;28;20138;-56
2022/02/27 05:20:12;;;;;;;9.15;6.40;;;;;;;;;;10289930;28;20485;-55
2022/02/27 05:25:16;;;;;;;10.90;6.60;;;;;;;;;;10287844;28;20084;-56
2022/02/27 05:30:15;;;;;;;9.02;6.82;;;;;;;;;;10288073;28;20113;-55
2022/02/27 05:35:15;;;;;;;11.93;8.77;;;;;;;;;;10286156;28;20087;-55
2022/02/27 05:40:18;;;;;;;12.38;7.72;;;;;;;;;;10287457;28;20076;-53
2022/02/27 05:45:18;;;;;;;10.48;7.72;;;;;;;;;;10276304;28;20099;-55
2022/02/27 05:50:17;;;;;;;10.27;8.07;;;;;;;;;;10266967;28;20122;-56
2022/02/27 05:55:15;;;;;;;11.80;8.55;;;;;;;;;;10281276;28;20072;-53
2022/02/27 06:00:15;;;;;;;12.45;9.00;;;;;;;;;;10274366;28;20075;-54
2022/02/27 06:05:13;;;;;;;14.07;8.77;;;;;;;;;;10274653;28;20075;-56
2022/02/27 06:10:12;;;;;;;10.95;9.07;;;;;;;;;;10286529;28;20071;-55
2022/02/27 06:15:11;;;;;;;13.85;10.32;;;;;;;;;;10281431;28;20076;-54
2022/02/27 06:20:12;;;;;;;23.25;10.43;;;;;;;;;;10254476;28;20072;-57
2022/02/27 06:25:10;;;;;;;17.75;12.23;;;;;;;;;;10270252;28;20078;-55
2022/02/27 06:30:10;;;;;;;19.92;11.27;;;;;;;;;;10269797;28;20064;-55
2022/02/27 06:35:09;;;;;;;19.70;11.48;;;;;;;;;;10271136;28;20061;-53
2022/02/27 06:40:09;;;;;;;25.23;16.38;;;;;;;;;;10256703;28;20474;-53
2022/02/27 06:45:11;;;;;;;43.47;27.10;;;;;;;;;;10264703;28;20076;-55
2022/02/27 06:50:10;;;;;;;29.25;18.15;;;;;;;;;;10267735;28;20110;-56
2022/02/27 06:55:15;;;;;;;28.25;16.25;;;;;;;;;;10264590;28;20085;-55
2022/02/27 07:00:14;;;;;;;22.88;15.57;;;;;;;;;;10278150;28;20084;-52
2022/02/27 07:05:13;;;;;;;19.50;12.32;;;;;;;;;;10286160;28;20069;-53
2022/02/27 07:10:12;;;;;;;24.90;17.23;;;;;;;;;;10267387;28;20239;-56
2022/02/27 07:15:11;;;;;;;17.42;11.20;;;;;;;;;;10253682;28;20471;-57
2022/02/27 07:20:10;;;;;;;19.65;13.57;;;;;;;;;;10263063;28;20068;-56
2022/02/27 07:25:09;;;;;;;19.02;14.43;;;;;;;;;;10260337;28;20534;-56
2022/02/27 07:30:09;;;;;;;16.75;11.25;;;;;;;;;;10264170;28;20388;-54
2022/02/27 07:35:07;;;;;;;28.23;14.13;;;;;;;;;;10305600;28;20390;-55
2022/02/27 07:40:06;;;;;;;30.88;17.40;;;;;;;;;;10281265;28;20080;-55
2022/02/27 07:45:05;;;;;;;22.90;13.85;;;;;;;;;;10300964;28;20072;-55
2022/02/27 07:50:05;;;;;;;14.85;11.25;;;;;;;;;;10275327;28;20103;-54
2022/02/27 07:55:04;;;;;;;31.88;21.30;;;;;;;;;;10282527;28;20064;-56
2022/02/27 08:00:02;;;;;;;16.95;10.40;;;;;;;;;;10275373;28;20083;-54
2022/02/27 08:05:10;;;;;;;19.13;13.10;;;;;;;;;;10293396;28;20080;-53
2022/02/27 08:10:10;;;;;;;11.55;8.98;;;;;;;;;;10291678;28;20080;-54
2022/02/27 08:15:10;;;;;;;18.13;12.13;;;;;;;;;;10285799;28;20068;-56
2022/02/27 08:20:12;;;;;;;32.20;21.17;;;;;;;;;;10309175;28;20072;-53
2022/02/27 08:25:12;;;;;;;19.38;10.57;;;;;;;;;;10291249;28;20076;-57
2022/02/27 08:30:10;;;;;;;22.75;11.43;;;;;;;;;;10280042;28;20079;-54
2022/02/27 08:35:09;;;;;;;13.68;8.55;;;;;;;;;;10316562;28;20099;-54
2022/02/27 08:40:10;;;;;;;18.98;10.95;;;;;;;;;;10309437;28;20474;-55
2022/02/27 08:45:10;;;;;;;24.38;12.30;;;;;;;;;;10310349;28;20068;-56
2022/02/27 08:50:09;;;;;;;11.52;8.73;;;;;;;;;;10286631;28;20388;-56
2022/02/27 08:55:10;;;;;;;16.92;11.25;;;;;;;;;;10277265;28;20090;-57
2022/02/27 09:00:10;;;;;;;15.77;10.90;;;;;;;;;;10289384;28;20417;-56
2022/02/27 09:05:09;;;;;;;15.90;10.93;;;;;;;;;;10308386;28;20088;-57
2022/02/27 09:10:08;;;;;;;18.10;10.45;;;;;;;;;;10314580;28;20103;-56
2022/02/27 09:15:09;;;;;;;12.20;8.15;;;;;;;;;;10315062;28;20071;-56
2022/02/27 09:20:08;;;;;;;16.27;10.20;;;;;;;;;;10287736;28;20094;-54
2022/02/27 09:25:06;;;;;;;11.88;9.50;;;;;;;;;;10289906;28;20508;-57
2022/02/27 09:30:26;;;;;;;12.15;9.32;;;;;;;;;;10280127;28;20084;-55
2022/02/27 09:35:28;;;;;;;18.67;12.88;;;;;;;;;;10287910;28;20076;-56
2022/02/27 09:40:27;;;;;;;14.90;10.20;;;;;;;;;;10286842;28;20081;-55
2022/02/27 09:45:27;;;;;;;15.57;11.63;;;;;;;;;;10280301;28;20064;-56
2022/02/27 09:50:27;;;;;;;14.90;9.73;;;;;;;;;;10286039;28;20517;-53
2022/02/27 09:55:27;;;;;;;19.88;11.15;;;;;;;;;;10285467;28;20450;-56
2022/02/27 10:00:29;;;;;;;18.77;12.77;;;;;;;;;;10287093;28;20075;-55
2022/02/27 10:05:29;;;;;;;21.27;11.35;;;;;;;;;;10284238;28;20076;-55
2022/02/27 10:10:31;;;;;;;17.92;10.88;;;;;;;;;;10311032;28;20461;-56
2022/02/27 10:15:33;;;;;;;19.25;11.73;;;;;;;;;;10312555;28;20048;-54
2022/02/27 10:20:32;;;;;;;30.33;12.60;;;;;;;;;;10286218;28;20072;-56
2022/02/27 10:25:33;;;;;;;17.90;12.85;;;;;;;;;;10255899;28;20490;-55
2022/02/27 10:30:33;;;;;;;20.63;13.80;;;;;;;;;;10249511;28;20497;-57
2022/02/27 10:35:52;;;;;;;14.93;11.07;;;;;;;;;;10266171;28;20455;-57
2022/02/27 10:40:50;;;;;;;17.27;9.13;;;;;;;;;;10260579;28;20473;-55
2022/02/27 10:46:02;;;;;;;17.13;12.70;;;;;;;;;;10257361;28;20057;-54
2022/02/27 10:51:04;;;;;;;18.23;13.63;;;;;;;;;;10259500;28;20080;-50
2022/02/27 10:56:05;;;;;;;23.45;12.50;;;;;;;;;;10253498;28;20072;-51
2022/02/27 11:01:09;;;;;;;19.98;13.63;;;;;;;;;;10258449;28;20494;-57
2022/02/27 11:06:08;;;;;;;10.98;8.32;;;;;;;;;;10259355;28;20079;-53
2022/02/27 11:11:06;;;;;;;14.50;10.93;;;;;;;;;;10257833;28;20076;-55
2022/02/27 11:16:07;;;;;;;20.10;13.63;;;;;;;;;;10264479;28;20076;-54
2022/02/27 11:21:07;;;;;;;10.82;8.20;;;;;;;;;;10252243;28;20077;-53
2022/02/27 11:26:05;;;;;;;14.93;10.45;;;;;;;;;;10257986;28;20069;-55
2022/02/27 11:31:05;;;;;;;15.23;12.85;;;;;;;;;;10262991;28;20084;-54
2022/02/27 11:36:04;;;;;;;15.43;11.20;;;;;;;;;;10266366;28;20152;-52
2022/02/27 11:41:11;;;;;;;11.68;9.52;;;;;;;;;;10262004;28;20568;-54
2022/02/27 11:46:10;;;;;;;15.27;8.57;;;;;;;;;;10256654;28;20381;-57
2022/02/27 11:51:08;;;;;;;17.60;11.02;;;;;;;;;;10267027;28;20113;-57
2022/02/27 11:56:07;;;;;;;10.63;8.27;;;;;;;;;;10263297;28;20069;-53
2022/02/27 12:01:07;;;;;;;12.73;8.60;;;;;;;;;;10266018;28;20069;-56
2022/02/27 12:06:05;;;;;;;13.52;9.02;;;;;;;;;;10262774;28;20080;-54
2022/02/27 12:11:04;;;;;;;14.88;9.40;;;;;;;;;;10257341;28;20498;-52
2022/02/27 12:16:35;;;;;;;11.32;8.63;;;;;;;;;;10263015;28;20091;-55
2022/02/27 12:21:34;;;;;;;17.73;12.27;;;;;;;;;;10257938;28;20583;-55
2022/02/27 12:26:53;;;;;;;18.88;12.43;;;;;;;;;;10262801;28;20073;-55
2022/02/27 12:31:53;;;;;;;13.23;9.75;;;;;;;;;;10258275;28;20095;-55
2022/02/27 12:36:52;;;;;;;11.55;8.63;;;;;;;;;;10279749;28;20084;-56
2022/02/27 12:41:54;;;;;;;18.23;12.18;;;;;;;;;;10268282;28;20065;-56
2022/02/27 12:46:54;;;;;;;16.20;11.10;;;;;;;;;;10263090;28;20599;-55
2022/02/27 12:51:56;;;;;;;22.17;13.10;;;;;;;;;;10254241;28;20105;-56
2022/02/27 12:56:55;;;;;;;15.77;8.43;;;;;;;;;;10254366;28;20084;-56
2022/02/27 13:01:55;;;;;;;17.55;11.65;;;;;;;;;;10258372;28;20088;-56
2022/02/27 13:06:58;;;;;;;17.48;11.02;;;;;;;;;;10261903;28;20415;-56
2022/02/27 13:11:57;;;;;;;12.25;8.07;;;;;;;;;;10254145;28;20532;-53
2022/02/27 13:16:56;;;;;;;18.45;12.80;;;;;;;;;;10268528;28;20075;-58
2022/02/27 13:21:55;;;;;;;16.42;8.40;;;;;;;;;;10269107;28;20095;-57
2022/02/27 13:26:53;;;;;;;13.95;9.20;;;;;;;;;;10260485;28;20096;-58
2022/02/27 13:31:51;;;;;;;19.45;13.38;;;;;;;;;;10263673;28;20073;-57
2022/02/27 13:36:52;;;;;;;22.88;16.30;;;;;;;;;;10247755;28;20064;-56
2022/02/27 13:41:50;;;;;;;24.70;16.30;;;;;;;;;;10253956;28;20481;-54
2022/02/27 13:46:51;;;;;;;9.23;7.95;;;;;;;;;;10257678;28;20065;-58
2022/02/27 13:51:49;;;;;;;11.77;8.40;;;;;;;;;;10261705;28;20072;-56
2022/02/27 13:57:02;;;;;;;8.52;6.15;;;;;;;;;;10262268;28;20075;-57
2022/02/27 14:02:01;;;;;;;10.45;7.45;;;;;;;;;;10265067;28;20065;-58
2022/02/27 14:06:59;;;;;;;15.55;10.48;;;;;;;;;;10247114;28;20114;-53
2022/02/27 14:12:06;;;;;;;18.85;11.45;;;;;;;;;;10247136;28;20071;-53
2022/02/27 14:17:22;;;;;;;22.73;15.23;;;;;;;;;;10262425;28;20083;-57
2022/02/27 14:22:21;;;;;;;14.82;6.88;;;;;;;;;;10244709;28;20061;-56
2022/02/27 14:27:21;;;;;;;10.65;6.47;;;;;;;;;;10257428;28;20057;-56
2022/02/27 14:32:23;;;;;;;13.52;7.63;;;;;;;;;;10259105;28;20172;-56
2022/02/27 14:37:21;;;;;;;14.93;10.82;;;;;;;;;;10249094;28;20071;-57
2022/02/27 14:42:23;;;;;;;15.93;10.02;;;;;;;;;;10249631;28;20068;-57
2022/02/27 14:47:23;;;;;;;17.08;8.75;;;;;;;;;;10256501;28;20384;-57
2022/02/27 14:52:24;;;;;;;18.30;11.15;;;;;;;;;;10250262;28;20076;-56
2022/02/27 14:57:26;;;;;;;20.40;13.52;;;;;;;;;;10250531;28;20061;-56
2022/02/27 15:02:26;;;;;;;10.70;7.70;;;;;;;;;;10255097;28;20540;-57
2022/02/27 15:07:24;;;;;;;22.80;11.48;;;;;;;;;;10278936;28;20395;-57
2022/02/27 15:12:23;;;;;;;18.83;11.18;;;;;;;;;;10284808;28;20079;-58
2022/02/27 15:17:22;;;;;;;15.65;9.07;;;;;;;;;;10286086;28;20078;-57
2022/02/27 15:22:21;;;;;;;16.30;10.98;;;;;;;;;;10271554;28;20470;-57
2022/02/27 15:27:19;;;;;;;14.88;9.23;;;;;;;;;;10297362;28;20068;-57
2022/02/27 15:32:17;;;;;;;23.90;15.35;;;;;;;;;;10260102;28;20076;-57
2022/02/27 15:37:17;;;;;;;17.52;10.70;;;;;;;;;;10269654;28;20069;-56
2022/02/27 15:42:15;;;;;;;9.48;7.20;;;;;;;;;;10276464;28;20045;-56
2022/02/27 15:47:14;;;;;;;19.95;14.55;;;;;;;;;;10265237;28;20473;-57
2022/02/27 15:52:12;;;;;;;12.45;8.65;;;;;;;;;;10261757;28;20060;-56
2022/02/27 15:57:12;;;;;;;14.10;7.43;;;;;;;;;;10248164;28;20080;-56
2022/02/27 16:02:10;;;;;;;14.65;9.25;;;;;;;;;;10253117;28;20146;-56
2022/02/27 16:07:09;;;;;;;21.63;12.98;;;;;;;;;;10250897;28;20069;-55
2022/02/27 16:12:09;;;;;;;13.13;9.25;;;;;;;;;;10250595;28;20538;-53
2022/02/27 16:17:09;;;;;;;12.60;8.60;;;;;;;;;;10261602;28;20076;-55
2022/02/27 16:22:07;;;;;;;19.60;12.40;;;;;;;;;;10259565;28;20072;-55
2022/02/27 16:27:06;;;;;;;23.85;12.35;;;;;;;;;;10254687;28;20067;-55
2022/02/27 16:32:04;;;;;;;17.25;11.02;;;;;;;;;;10257017;28;20574;-57
2022/02/27 16:37:04;;;;;;;16.33;10.98;;;;;;;;;;10252669;28;20541;-55
2022/02/27 16:42:03;;;;;;;31.13;17.48;;;;;;;;;;10258128;28;20647;-55
2022/02/27 16:47:01;;;;;;;36.03;19.42;;;;;;;;;;10249670;28;20622;-56
2022/02/27 16:52:00;;;;;;;48.47;27.58;;;;;;;;;;10252579;28;20069;-56
2022/02/27 16:56:59;;;;;;;19.33;13.90;;;;;;;;;;10274175;28;20056;-57
2022/02/27 17:01:57;;;;;;;49.70;28.42;;;;;;;;;;10246932;28;20092;-58
2022/02/27 17:06:58;;;;;;;18.40;11.00;;;;;;;;;;10260749;28;20083;-57
2022/02/27 17:11:59;;;;;;;20.52;9.27;;;;;;;;;;10244233;28;20128;-57
2022/02/27 17:17:00;;;;;;;11.48;6.50;;;;;;;;;;10249642;28;20100;-57
2022/02/27 17:21:58;;;;;;;25.10;15.60;;;;;;;;;;10253058;28;20223;-57
2022/02/27 17:26:57;;;;;;;20.92;12.35;;;;;;;;;;10244429;28;20451;-55
2022/02/27 17:31:56;;;;;;;14.05;8.85;;;;;;;;;;10251328;28;20073;-58
2022/02/27 17:36:55;;;;;;;9.80;7.55;;;;;;;;;;10245872;28;20505;-58
2022/02/27 17:41:53;;;;;;;9.30;7.20;;;;;;;;;;10256694;28;20060;-58
2022/02/27 17:46:51;;;;;;;7.57;5.53;;;;;;;;;;10255786;28;20509;-58
2022/02/27 17:51:52;;;;;;;11.57;6.90;;;;;;;;;;10253616;28;20083;-58
2022/02/27 17:56:51;;;;;;;14.75;9.23;;;;;;;;;;10266829;28;20084;-58
2022/02/27 18:01:50;;;;;;;9.35;6.30;;;;;;;;;;10268745;28;20482;-58
2022/02/27 18:06:50;;;;;;;13.65;8.95;;;;;;;;;;10259608;28;20060;-58
2022/02/27 18:11:49;;;;;;;11.38;5.95;;;;;;;;;;10256503;28;20068;-58
2022/02/27 18:16:47;;;;;;;13.00;8.40;;;;;;;;;;10265331;28;20061;-58
2022/02/27 18:21:45;;;;;;;11.30;8.52;;;;;;;;;;10262464;28;20076;-58
2022/02/27 18:26:45;;;;;;;13.50;9.23;;;;;;;;;;10254368;28;20076;-59
2022/02/27 18:31:43;;;;;;;13.00;9.38;;;;;;;;;;10257078;28;20510;-58
2022/02/27 18:36:42;;;;;;;10.85;5.95;;;;;;;;;;10250895;28;20533;-58
2022/02/27 18:41:40;;;;;;;11.43;5.97;;;;;;;;;;10251118;28;20072;-58
2022/02/27 18:46:40;;;;;;;10.13;7.32;;;;;;;;;;10247958;28;20530;-58
2022/02/27 18:51:42;;;;;;;8.93;6.53;;;;;;;;;;10253195;28;20073;-58
2022/02/27 18:56:41;;;;;;;15.48;9.95;;;;;;;;;;10265438;28;20057;-58
2022/02/27 19:01:40;;;;;;;9.90;6.32;;;;;;;;;;10246197;28;20060;-58
2022/02/27 19:06:40;;;;;;;15.68;8.82;;;;;;;;;;10252727;28;20073;-58
2022/02/27 19:11:39;;;;;;;10.23;6.78;;;;;;;;;;10249155;28;20471;-54
2022/02/27 19:16:38;;;;;;;7.40;5.97;;;;;;;;;;10254569;28;20072;-56
2022/02/27 19:21:37;;;;;;;9.63;6.65;;;;;;;;;;10248182;28;20172;-58
2022/02/27 19:26:36;;;;;;;9.30;4.97;;;;;;;;;;10260280;28;20077;-57
2022/02/27 19:31:34;;;;;;;6.15;4.88;;;;;;;;;;10244842;28;20135;-57
2022/02/27 19:36:32;;;;;;;11.65;6.80;;;;;;;;;;10247615;28;20072;-57
2022/02/27 19:41:32;;;;;;;11.50;6.18;;;;;;;;;;10264733;28;20080;-56
2022/02/27 19:46:31;;;;;;;12.70;7.65;;;;;;;;;;10261910;28;20095;-57
2022/02/27 19:51:30;;;;;;;11.30;8.27;;;;;;;;;;10266141;28;20486;-56
2022/02/27 19:56:28;;;;;;;9.35;7.32;;;;;;;;;;10256158;28;20073;-56
2022/02/27 20:01:28;;;;;;;10.32;5.72;;;;;;;;;;10264625;28;20495;-56
2022/02/27 20:06:26;;;;;;;11.02;6.75;;;;;;;;;;10268085;28;20064;-55
2022/02/27 20:11:26;;;;;;;11.18;6.55;;;;;;;;;;10264007;28;20080;-56
2022/02/27 20:16:24;;;;;;;12.57;8.77;;;;;;;;;;10264286;28;20509;-57
2022/02/27 20:21:24;;;;;;;8.18;6.60;;;;;;;;;;10261464;28;20060;-56
2022/02/27 20:26:22;;;;;;;9.90;7.70;;;;;;;;;;10276434;28;20485;-55
2022/02/27 20:31:21;;;;;;;15.35;9.13;;;;;;;;;;10259989;28;20080;-57
2022/02/27 20:36:19;;;;;;;16.67;11.25;;;;;;;;;;10277889;28;20481;-55
2022/02/27 20:41:19;;;;;;;11.55;7.95;;;;;;;;;;10260536;28;20056;-57
2022/02/27 20:46:17;;;;;;;15.13;8.10;;;;;;;;;;10277050;28;20171;-52
2022/02/27 20:51:16;;;;;;;12.85;9.50;;;;;;;;;;10271912;28;20095;-56
2022/02/27 20:56:14;;;;;;;22.15;14.25;;;;;;;;;;10263056;28;20075;-56
2022/02/27 21:01:16;;;;;;;27.00;17.25;;;;;;;;;;10259263;28;20500;-57
2022/02/27 21:06:16;;;;;;;26.20;14.63;;;;;;;;;;10263137;28;20077;-56
2022/02/27 21:11:15;;;;;;;7.93;6.00;;;;;;;;;;10259344;28;20549;-59
2022/02/27 21:16:16;;;;;;;10.48;7.05;;;;;;;;;;10251404;28;20084;-54
2022/02/27 21:21:15;;;;;;;9.30;7.05;;;;;;;;;;10264166;28;20072;-57
2022/02/27 21:26:14;;;;;;;8.23;6.75;;;;;;;;;;10252802;28;20080;-55
2022/02/27 21:31:15;;;;;;;11.30;7.95;;;;;;;;;;10250775;28;20076;-57
2022/02/27 21:36:15;;;;;;;12.95;8.55;;;;;;;;;;10243542;28;20080;-53
2022/02/27 21:41:15;;;;;;;8.90;6.88;;;;;;;;;;10264191;28;20103;-53
2022/02/27 21:46:13;;;;;;;19.30;12.57;;;;;;;;;;10263963;28;20090;-56
2022/02/27 21:51:11;;;;;;;10.07;7.57;;;;;;;;;;10249491;28;20072;-52
2022/02/27 21:56:11;;;;;;;11.98;7.30;;;;;;;;;;10257557;28;20467;-56
2022/02/27 22:01:09;;;;;;;10.48;7.72;;;;;;;;;;10266740;28;20095;-55
2022/02/27 22:06:08;;;;;;;9.52;6.57;;;;;;;;;;10261210;28;20574;-57
2022/02/27 22:11:07;;;;;;;8.32;6.70;;;;;;;;;;10257658;28;20068;-56
2022/02/27 22:16:06;;;;;;;10.68;6.53;;;;;;;;;;10258038;28;20087;-56
2022/02/27 22:21:05;;;;;;;12.93;6.45;;;;;;;;;;10263372;28;20072;-57
2022/02/27 22:26:03;;;;;;;21.98;12.07;;;;;;;;;;10248909;28;20069;-57
2022/02/27 22:31:01;;;;;;;9.27;7.53;;;;;;;;;;10256005;28;20060;-57
2022/02/27 22:36:05;;;;;;;7.82;4.85;;;;;;;;;;10244762;28;20087;-57
2022/02/27 22:41:03;;;;;;;7.13;5.18;;;;;;;;;;10244889;28;20533;-57
2022/02/27 22:46:02;;;;;;;10.57;6.03;;;;;;;;;;10252235;28;20089;-57
2022/02/27 22:51:00;;;;;;;10.98;6.20;;;;;;;;;;10249693;28;20083;-57
2022/02/27 22:56:00;;;;;;;14.55;9.02;;;;;;;;;;10249279;28;20496;-53
2022/02/27 23:00:58;;;;;;;12.85;7.65;;;;;;;;;;10251116;28;20080;-57
2022/02/27 23:05:57;;;;;;;8.77;4.95;;;;;;;;;;10244125;28;20077;-57
2022/02/27 23:10:56;;;;;;;11.80;5.93;;;;;;;;;;10270843;28;20075;-57
2022/02/27 23:15:56;;;;;;;8.63;4.55;;;;;;;;;;10269511;28;20092;-55
2022/02/27 23:20:54;;;;;;;7.25;5.18;;;;;;;;;;10276338;28;20069;-57
2022/02/27 23:25:52;;;;;;;11.45;7.40;;;;;;;;;;10276053;28;20556;-57
2022/02/27 23:30:51;;;;;;;10.48;5.28;;;;;;;;;;10274241;28;20069;-57
2022/02/27 23:35:50;;;;;;;10.30;6.72;;;;;;;;;;10320024;28;20463;-57
2022/02/27 23:40:49;;;;;;;7.82;6.05;;;;;;;;;;10274465;28;20067;-57
2022/02/27 23:45:52;;;;;;;6.18;4.72;;;;;;;;;;10275481;28;20442;-56
2022/02/27 23:50:55;;;;;;;10.43;5.88;;;;;;;;;;10275495;28;20080;-58
2022/02/27 23:55:53;;;;;;;8.05;5.70;;;;;;;;;;10275950;28;20081;-56
